Tiempo atmosférico en la estación meteorológica de Huelva, Ronda Este, Huelva (19 m.)



Fecha
DESCASC
Temp. máxima en grados centígrados (hora)
DESCASC
Temp. mínima en grados centígrados (hora)
DESCASC
Temp. media en grados centígrados
DESCASC
Racha de viento máxima en m/sg (hora)
DESCASC
Velocidad máxima media en intervalos de 10 minutos(hora)
DESCASC
Precipitaciones diarias en mm
DESCASC
Precipitaciones de 00:00 a 06:00 en mm
DESCASC
Precipitaciones de 06:00 a 12:00 en mm
DESCASC
Precipitaciones de 12:00 a 18:00 en mm
DESCASC
Precipitaciones de 18:00 a 24:00 en mm
DESCASC
15-08-2019 33.7 (15:30) 20.2 (07:50) 27 9.44 (17:20) 7.22 (17:20) 0 0 0 0 0
14-08-2019 34.4 (15:10) 16.7 (00:00) 25.6 9.44 (17:30) 6.94 (16:50) 0 0 0 0 0
13-08-2019 34 (13:40) 18.1 (00:00) 26.1 10 (19:30) 6.39 (14:10) 0 0 0 0 0
12-08-2019 34.8 (18:10) 16.7 (00:00) 25.8 9.17 (19:50) 4.44 (13:30) 0 0 0 0 0
11-08-2019 31.2 (17:50) 18.9 (00:00) 25.1 13.33 (09:50) 6.94 (01:10) 0 0 0 0 0
10-08-2019 34.3 (16:20) 20.1 (00:00) 27.2 12.5 (23:30) 7.22 (18:50) 0 0 0 0 0
09-08-2019 30.2 (13:40) 21.2 (00:00) 25.7 11.39 (18:00) 8.33 (16:30) 0 0 0 0 0
08-08-2019 33.1 (14:20) 21.5 (00:00) 27.3 10.28 (18:10) 7.22 (19:10) 0 0 0 0 0
07-08-2019 33 (15:40) 20.1 (00:00) 26.6 10.56 (18:10) 7.78 (18:10) 0 0 0 0 0
06-08-2019 34.5 (15:00) 18.3 (00:00) 26.4 10 (18:40) 7.5 (18:50) 0 0 0 0 0
05-08-2019 34.5 (14:40) 18.9 (00:00) 26.7 9.72 (17:50) 7.22 (17:50) 0 0 0 0 0
04-08-2019 34.8 (14:50) 20.3 (00:00) 27.5 11.67 (18:50) 8.33 (19:10) 0 0 0 0 0
03-08-2019 32.2 (14:20) 18.7 (00:00) 25.5 9.44 (17:40) 6.39 (18:00) 0 0 0 0 0
02-08-2019 34.7 (15:20) 18.4 (00:00) 26.6 10 (17:50) 7.5 (17:50) 0 0 0 0 0
01-08-2019 32.9 (15:40) 20.1 (00:00) 26.5 10 (17:00) 7.22 (17:00) 0 0 0 0 0
31-07-2019 32.7 (17:30) 17.9 (00:00) 25.3 9.17 (20:50) 6.67 (20:50) 0 0 0 0 0
30-07-2019 36.7 (17:50) 16.7 (00:00) 26.7 11.39 (18:30) 7.5 (19:10) 0 0 0 0 0
29-07-2019 33.7 (16:20) 18.5 (00:00) 26.1 10.28 (15:50) 6.67 (18:40) 0 0 0 0 0
28-07-2019 29.8 (14:00) 17.1 (00:00) 23.4 10.28 (18:50) 7.5 (16:00) 0 0 0 0 0
27-07-2019 25.3 (14:30) 18 (00:00) 21.6 12.78 (17:10) 8.33 (00:20) 0 0 0 0 0
26-07-2019 31.7 (16:00) 19.4 (00:00) 25.6 12.22 (14:20) 7.78 (23:00) 0 0 0 0 0
25-07-2019 32.7 (15:40) 20 (00:00) 26.4 11.39 (23:50) 7.5 (20:30) 0 0 0 0 0
24-07-2019 32.9 (17:20) 22.2 (00:00) 27.6 8.89 (16:00) 5.83 (16:20) 0 0 0 0 0
23-07-2019 32 (15:00) 23.1 (00:00) 27.6 8.61 (15:30) 6.39 (15:50) 0 0 0 0 0
22-07-2019 34.4 (17:10) 21.3 (00:00) 27.9 8.61 (21:30) 5.83 (21:20) 0 0 0 0 0
21-07-2019 32.6 (12:30) 21.7 (00:00) 27.1 8.61 (03:00) 6.11 (14:00) 0 0 0 0 0
20-07-2019 37 (15:50) 21.2 (00:00) 29.1 10.28 (18:20) 7.22 (18:50) 0 0 0 0 0
19-07-2019 35.9 (14:50) 19.5 (00:00) 27.7 9.17 (16:40) 6.67 (16:50) 0 0 0 0 0

Gráficas

Temp. máximas Temp. mínimas Temp. medias Precipitaciones Rachas de viento máximas Velocidades máximas media en intervalos de 10 minutos

Datos horarios

Fecha y hora oficial Temperatura (ºC) Velocidad del viento (km/h) Dirección del viento Racha (km/h) Dirección de racha Precipitación (mm) Presión (hPa) Tendencia (hPa) Humedad (%)
2019-08-17 23:00:00 29 14 Oeste 27 Oeste 0 1010 0.6 35
2019-08-17 22:00:00 28.9 15 Oeste 23 Sudoeste 0 1009.5 -0.2 34
2019-08-17 21:00:00 30.2 16 Sudoeste 27 Oeste 0 1009.4 -0.8 32
2019-08-17 20:00:00 32.3 17 Sudoeste 24 Sudoeste 0 1009.4 -1 30
2019-08-17 19:00:00 33.7 18 Sudoeste 28 Sudoeste 0 1009.7 -0.9 26
2019-08-17 18:00:00 32.7 20 Sudoeste 31 Sudoeste 0 1010.2 -1 33
2019-08-17 17:00:00 34.8 20 Sudoeste 27 Sudoeste 0 1010.4 -1.3 31
2019-08-17 16:00:00 36.8 13 Sudoeste 23 Sudoeste 0 1010.6 -1.7 27
2019-08-17 15:00:00 36.6 15 Sudoeste 23 Sur 0 1011.2 -1.6 28
2019-08-17 14:00:00 36.4 9 Oeste 18 Sudoeste 0 1011.7 -1.2 26
2019-08-17 13:00:00 34 5 Este 11 Nordeste 0 1012.3 -0.8 28
2019-08-17 12:00:00 31.2 4 Nordeste 13 Nordeste 0 1012.8 0 33
2019-08-17 11:00:00 27.5 6 Norte 18 Norte 0 1012.9 0.4 43
2019-08-17 10:00:00 23.7 11 Norte 23 Norte 0 1013.1 0.7 52
2019-08-17 09:00:00 21.2 6 Noroeste 16 Nordeste 0 1012.8 0.4 61
2019-08-17 08:00:00 20.5 6 Norte 21 Oeste 0 1012.5 -0.2 63
2019-08-17 07:00:00 21.2 12 Noroeste 23 Noroeste 0 1012.4 -0.3 60
2019-08-17 06:00:00 22.7 10 Noroeste 26 Oeste 0 1012.4 -0.2 53
2019-08-17 05:00:00 23.7 8 Noroeste 18 Noroeste 0 1012.7 -0.2 50
2019-08-17 04:00:00 24.2 6 Oeste 16 Noroeste 0 1012.7 -0.4 49
2019-08-17 03:00:00 23.2 2 Norte 13 Noroeste 0 1012.6 -0.5 56
2019-08-17 02:00:00 22.8 4 Noroeste 6 Noroeste 0 1012.9 -0.2 62
2019-08-17 01:00:00 22.8 3 Sur 8 Sur 0 1013.1 0.6 62
2019-08-17 00:00:00 23.5 7 Sur 14 Sudoeste 0 1013.1 0.8 61
2019-08-16 23:00:00 25.2 4 Sur 16 Sudoeste 0 1013.1 0.9 55
2019-08-16 22:00:00 27.2 12 Sudoeste 21 Oeste 0 1012.5 0.3 44
2019-08-16 21:00:00 28.9 12 Sudoeste 26 Oeste 0 1012.3 -0.2 38
2019-08-16 20:00:00 29.5 19 Sudoeste 31 Sudoeste 0 1012.2 -0.9 38
2019-08-16 19:00:00 30.8 21 Sudoeste 36 Sudoeste 0 1012.2 -1 36
2019-08-16 18:00:00 31.2 22 Sudoeste 35 Sudoeste 0 1012.5 -1.1 38
2019-08-16 17:00:00 31.6 24 Sudoeste 32 Sudoeste 0 1013.1 -0.7 36
2019-08-16 16:00:00 33 22 Sur 29 Sur 0 1013.2 -1 36
2019-08-16 15:00:00 33.8 19 Sur 28 Sur 0 1013.6 -0.8 32
2019-08-16 14:00:00 34.6 14 Sur 22 Sudoeste 0 1013.8 -0.5 32
2019-08-16 13:00:00 33.1 8 Sur 16 Sur 0 1014.2 -0.2 36
2019-08-16 12:00:00 31 5 Sudoeste 14 Noroeste 0 1014.4 0.2 40
2019-08-16 11:00:00 28.1 6 Noroeste 15 Norte 0 1014.3 0.5 46
2019-08-16 10:00:00 25.1 7 Noroeste 16 Noroeste 0 1014.4 1.2 54
2019-08-16 09:00:00 23.6 5 Norte 15 Noroeste 0 1014.2 1.1 58
2019-08-16 08:00:00 22.8 8 Noroeste 20 Noroeste 0 1013.8 0.6 62
2019-08-16 07:00:00 23.7 10 Noroeste 19 Noroeste 0 1013.2 0 58
2019-08-16 06:00:00 23.8 3 Noroeste 10 Nordeste 0 1013.1 -0.3 55
2019-08-16 05:00:00 23.1 5 Noroeste 11 Noroeste 0 1013.2 -0.4 57
2019-08-16 04:00:00 22 2 Este 5 Norte 0 1013.2 -0.3 57
2019-08-16 03:00:00 23 3 Este 8 Norte 0 1013.4 0.1 58
2019-08-16 02:00:00 23.6 4 Norte 11 Norte 0 1013.6 0.3 59
2019-08-16 01:00:00 24.2 0 Calma 12 Sudoeste 0 1013.5 0.6 59
2019-08-16 00:00:00 27 8 Sudoeste 28 Sudoeste 0 1013.3 0.7 47
2019-08-15 23:00:00 29.1 18 Sudoeste 28 Sudoeste 0 1013.3 0.7 33
2019-08-15 22:00:00 29.2 17 Oeste 25 Oeste 0 1012.9 0.1 34
2019-08-15 21:00:00 30.5 12 Sudoeste 33 Oeste 0 1012.6 -0.3 33
2019-08-15 20:00:00 30.8 20 Sudoeste 32 Sudoeste 0 1012.6 -0.8 36
2019-08-15 19:00:00 31.7 18 Sudoeste 32 Sudoeste 0 1012.8 -1.1 37
2019-08-15 18:00:00 31.4 23 Sudoeste 34 Sudoeste 0 1012.9 -1.3 37
2019-08-15 17:00:00 32.8 20 Sudoeste 31 Oeste 0 1013.4 -1.2 37
2019-08-15 16:00:00 33.6 18 Sudoeste 27 Sudoeste 0 1013.9 -0.9 35
2019-08-15 15:00:00 33.5 16 Sudoeste 25 Sur 0 1014.2 -0.8 34
2019-08-15 14:00:00 32.1 17 Sur 27 Sur 0 1014.6 -0.3 42
2019-08-15 13:00:00 32.6 17 Sur 23 Sur 0 1014.8 -0.2 39
2019-08-15 12:00:00 31.2 9 Sur 15 Sudoeste 0 1015 0.1 39
2019-08-15 11:00:00 28.3 4 Nordeste 12 Norte 0 1014.9 0.3 46
2019-08-15 10:00:00 24.9 6 Norte 13 Nordeste 0 1015 0.8 58
2019-08-15 09:00:00 22.3 4 Nordeste 10 Nordeste 0 1014.9 0.8 62
2019-08-15 08:00:00 20.2 5 Norte 13 Norte 0 1014.6 0.7 70
2019-08-15 07:00:00 20.7 9 Norte 13 Nordeste 0 1014.2 0.6 72
2019-08-15 06:00:00 20.4 5 Nordeste 10 Nordeste 0 1014.1 0.5 67
2019-08-15 05:00:00 21.6 7 Nordeste 12 Nordeste 0 1013.9 0.1 62
2019-08-15 04:00:00 24.1 4 Nordeste 15 Noroeste 0 1013.6 -0.3 51
2019-08-15 03:00:00 26.2 6 Noroeste 25 Noroeste 0 1013.6 -0.4 44
2019-08-15 02:00:00 26.6 9 Noroeste 19 Norte 0 1013.8 0 41
2019-08-15 01:00:00 25 4 Noroeste 12 Oeste 0 1013.9 0.6 56
2019-08-15 00:00:00 23.5 3 Este 6 Sudeste 0 1014 1 66
2019-08-14 23:00:00 24.2 4 Sur 13 Sur 0 1013.8 0.9 64
2019-08-14 22:00:00 26.1 9 Sur 13 Sur 0 1013.3 0 60
2019-08-14 21:00:00 29.6 7 Sudoeste 28 Oeste 0 1013 -0.6 47
2019-08-14 20:00:00 30.4 21 Sudoeste 33 Sudoeste 0 1012.9 -1.1 45
2019-08-14 19:00:00 31.4 20 Sudoeste 33 Sudoeste 0 1013.3 -1.2 45
2019-08-14 18:00:00 32.2 24 Sudoeste 34 Sudoeste 0 1013.6 -1.5 41
2019-08-14 17:00:00 33.2 22 Sudoeste 31 Sudoeste 0 1014 -1.7 39
2019-08-14 16:00:00 33.8 19 Sudoeste 29 Sudoeste 0 1014.5 -1.8 37
2019-08-14 15:00:00 34.2 17 Oeste 24 Oeste 0 1015.1 -1.4 37
2019-08-14 14:00:00 33.2 13 Oeste 27 Oeste 0 1015.7 -0.7 33
2019-08-14 13:00:00 31.7 6 Nordeste 12 Este 0 1016.3 -0.1 39
2019-08-14 12:00:00 29.3 4 Oeste 13 Oeste 0 1016.5 0.4 44
2019-08-14 11:00:00 26.5 6 Noroeste 12 Nordeste 0 1016.4 0.9 36
2019-08-14 10:00:00 22.6 4 Norte 13 Norte 0 1016.4 1.2 42
2019-08-14 09:00:00 19.7 7 Norte 15 Norte 0 1016.1 1.1 50
2019-08-14 08:00:00 17.6 3 Noroeste 10 Noroeste 0 1015.5 0.7 46
2019-08-14 07:00:00 16.9 4 Norte 9 Nordeste 0 1015.2 0.5 48
2019-08-14 06:00:00 18.1 7 Norte 10 Norte 0 1015 0.4 46
2019-08-14 05:00:00 18.2 3 Nordeste 8 Nordeste 0 1014.8 0.3 48
2019-08-14 04:00:00 19 4 Nordeste 10 Nordeste 0 1014.7 0.2 46
2019-08-14 03:00:00 20.2 6 Nordeste 10 Norte 0 1014.6 0.5 47
2019-08-14 02:00:00 23.7 5 Nordeste 14 Noroeste 0 1014.5 0.6 38
2019-08-14 01:00:00 23.3 3 Sudoeste 14 Oeste 0 1014.5 1.1 40
2019-08-14 00:00:00 24.8 4 Sur 23 Oeste 0 1014.1 1.1 38
2019-08-13 23:00:00 26.2 16 Oeste 23 Oeste 0 1013.9 1 31
2019-08-13 22:00:00 26.4 12 Oeste 26 Oeste 0 1013.4 0.6 31
2019-08-13 21:00:00 27.8 16 Sudoeste 31 Oeste 0 1013 0.1 26
2019-08-13 20:00:00 28.8 19 Sudoeste 36 Sudoeste 0 1012.9 -0.3 25
2019-08-13 19:00:00 29.1 22 Sudoeste 31 Sur 0 1012.8 -0.9 30
2019-08-13 18:00:00 32.6 18 Sudoeste 28 Sudoeste 0 1012.9 -1.3 23
2019-08-13 17:00:00 33.2 19 Sur 30 Sur 0 1013.2 -1.3 22
2019-08-13 16:00:00 32.5 20 Sur 30 Sudoeste 0 1013.7 -1.1 26
2019-08-13 15:00:00 32.7 21 Sur 31 Sur 0 1014.2 -0.8 17
2019-08-13 14:00:00 32.5 21 Sur 32 Sur 0 1014.5 -0.3 19
2019-08-13 13:00:00 32.7 5 Noroeste 19 Sudoeste 0 1014.8 0.3 17
2019-08-13 12:00:00 30 6 Norte 17 Norte 0 1015 0.8 25
2019-08-13 11:00:00 25.7 10 Noroeste 22 Noroeste 0 1014.8 1.1 36
2019-08-13 10:00:00 22.2 8 Norte 17 Norte 0 1014.5 1.3 47
2019-08-13 09:00:00 19.3 9 Norte 15 Norte 0 1014.2 1.1 56
2019-08-13 08:00:00 18.2 8 Noroeste 24 Noroeste 0 1013.7 0.6 59
2019-08-13 07:00:00 18.9 11 Noroeste 25 Noroeste 0 1013.2 0 56
2019-08-13 06:00:00 19.8 11 Noroeste 25 Noroeste 0 1013.1 -0.4 54
2019-08-13 05:00:00 20.7 15 Noroeste 26 Noroeste 0 1013.1 -0.9 51
2019-08-13 04:00:00 21.7 14 Noroeste 28 Noroeste 0 1013.2 -0.4 47
2019-08-13 03:00:00 23.5 12 Noroeste 28 Noroeste 0 1013.5 -0.2 33
2019-08-13 02:00:00 24.4 15 Noroeste 29 Noroeste 0 1014 0.5 24
2019-08-13 01:00:00 27.4 6 Noroeste 24 Norte 0 1013.6 1 18
2019-08-13 00:00:00 28.3 12 Norte 28 Norte 0 1013.7 1.8 17
2019-08-12 23:00:00 28.4 5 Noroeste 22 Oeste 0 1013.5 2.2 17
2019-08-12 22:00:00 29.1 13 Noroeste 28 Noroeste 0 1012.6 1.4 16
2019-08-12 21:00:00 31.4 8 Norte 28 Norte 0 1011.9 0.4 14
2019-08-12 20:00:00 33.2 15 Norte 33 Norte 0 1011.3 -0.8 12
2019-08-12 19:00:00 34.6 9 Norte 27 Noroeste 0 1011.2 -1.7 11
2019-08-12 18:00:00 34.6 13 Norte 31 Norte 0 1011.5 -2.3 11
2019-08-12 17:00:00 34.3 9 Norte 26 Norte 0 1012.1 -2.4 12
2019-08-12 16:00:00 33.3 10 Nordeste 29 Norte 0 1012.9 -2.1 13
2019-08-12 15:00:00 32.4 10 Norte 26 Norte 0 1013.8 -1.6 14
2019-08-12 14:00:00 30.9 13 Norte 28 Norte 0 1014.5 -1.1 16
2019-08-12 13:00:00 29.7 12 Nordeste 24 Nordeste 0 1015 -0.5 21
2019-08-12 12:00:00 26.3 11 Norte 30 Norte 0 1015.4 0 31
2019-08-12 11:00:00 23.3 12 Norte 28 Norte 0 1015.6 0.6 41
2019-08-12 10:00:00 20.4 13 Norte 27 Norte 0 1015.5 0.6 51
2019-08-12 09:00:00 17.7 13 Norte 26 Norte 0 1015.4 0.4 63
2019-08-12 08:00:00 16.8 5 Noroeste 20 Noroeste 0 1015 -0.1 66
2019-08-12 07:00:00 17.8 12 Norte 23 Noroeste 0 1014.9 -0.2 62
2019-08-12 06:00:00 18.5 8 Norte 25 Oeste 0 1015 -0.6 60
2019-08-12 05:00:00 19.6 10 Norte 29 Norte 0 1015.1 -0.8 56
2019-08-12 04:00:00 20.3 10 Norte 28 Norte 0 1015.1 -0.9 52
2019-08-12 03:00:00 21.3 13 Norte 32 Norte 0 1015.6 -0.5 48
2019-08-12 02:00:00 22.5 9 Norte 32 Nordeste 0 1015.9 0.4 41
2019-08-12 01:00:00 23.7 8 Norte 22 Oeste 0 1016 1.3 36
2019-08-12 00:00:00 24.5 9 Noroeste 24 Noroeste 0 1016.1 1.9 33
2019-08-11 23:00:00 25.6 8 Noroeste 22 Noroeste 0 1015.5 1.5 30
2019-08-11 22:00:00 26.9 6 Norte 40 Norte 0 1014.7 0.8 27
2019-08-11 21:00:00 27.6 18 Norte 40 Noroeste 0 1014.2 0.1 25
2019-08-11 20:00:00 29.1 14 Noroeste 40 Noroeste 0 1014 -0.6 25
2019-08-11 19:00:00 30.6 16 Noroeste 38 Norte 0 1013.9 -1.3 21
2019-08-11 18:00:00 30.9 20 Norte 40 Noroeste 0 1014.1 -1.8 22
2019-08-11 17:00:00 30.2 17 Noroeste 41 Noroeste 0 1014.6 -1.8 22
2019-08-11 16:00:00 30.7 18 Noroeste 43 Oeste 0 1015.2 -1.6 20
2019-08-11 15:00:00 30.2 18 Noroeste 46 Noroeste 0 1015.9 -1 20
2019-08-11 14:00:00 28.7 18 Norte 38 Noroeste 0 1016.4 -0.2 24
2019-08-11 13:00:00 26.9 15 Norte 41 Norte 0 1016.8 0.4 31
2019-08-11 12:00:00 25.5 14 Norte 37 Nordeste 0 1016.9 0.8 33
2019-08-11 11:00:00 23.3 13 Norte 42 Norte 0 1016.6 1.1 43
2019-08-11 10:00:00 21.1 24 Norte 48 Norte 0 1016.4 0.9 49
2019-08-11 09:00:00 19.8 15 Norte 34 Norte 0 1016.1 0.8 57
2019-08-11 08:00:00 18.9 12 Norte 31 Nordeste 0 1015.5 0.4 60
2019-08-11 07:00:00 19.2 10 Norte 32 Noroeste 0 1015.5 1 60
2019-08-11 06:00:00 19.7 14 Noroeste 41 Noroeste 0 1015.3 0.2 58
2019-08-11 05:00:00 20.1 23 Noroeste 44 Noroeste 0 1015.1 -0.5 56
2019-08-11 04:00:00 20.5 18 Noroeste 28 Noroeste 0 1014.5 -1.1 55
2019-08-11 03:00:00 21.6 19 Noroeste 38 Noroeste 0 1015.1 -0.1 52
2019-08-11 02:00:00 22.5 18 Noroeste 37 Oeste 0 1015.6 0.8 50
2019-08-11 01:00:00 23.2 23 Noroeste 36 Noroeste 0 1015.6 2.1 49
2019-08-11 00:00:00 24.2 23 Noroeste 45 Noroeste 0 1015.2 2.4 48
2019-08-10 23:00:00 25.9 23 Noroeste 40 Noroeste 0 1014.8 1.9 45
2019-08-10 22:00:00 28.1 17 Noroeste 26 Noroeste 0 1013.5 0.5 32
2019-08-10 21:00:00 28.1 16 Oeste 32 Oeste 0 1012.8 -0.6 37
2019-08-10 20:00:00 28.9 24 Oeste 35 Oeste 0 1012.9 -1 35
2019-08-10 19:00:00 29.9 25 Oeste 34 Oeste 0 1013 -1.6 34
2019-08-10 18:00:00 30.7 23 Sudoeste 33 Sudoeste 0 1013.4 -2 34
2019-08-10 17:00:00 31.9 21 Sudoeste 30 Sudoeste 0 1013.9 -2.1 35
2019-08-10 16:00:00 33.8 13 Oeste 28 Oeste 0 1014.6 -1.9 24
2019-08-10 15:00:00 32.5 13 Oeste 25 Oeste 0 1015.4 -1.4 30
2019-08-10 14:00:00 31.3 9 Oeste 23 Oeste 0 1016 -0.8 34
2019-08-10 13:00:00 29.8 11 Noroeste 23 Noroeste 0 1016.5 -0.2 38
2019-08-10 12:00:00 29 10 Noroeste 24 Noroeste 0 1016.8 0.5 40
2019-08-10 11:00:00 26.8 7 Noroeste 21 Noroeste 0 1016.8 0.7 46
2019-08-10 10:00:00 24.7 11 Norte 22 Nordeste 0 1016.7 0.8 54
2019-08-10 09:00:00 22 4 Noroeste 24 Noroeste 0 1016.3 0.4 65
2019-08-10 08:00:00 20.2 14 Noroeste 25 Noroeste 0 1016.1 0.2 72
2019-08-10 07:00:00 20.7 10 Noroeste 24 Noroeste 0 1015.9 0.2 71
2019-08-10 06:00:00 21.3 8 Noroeste 22 Noroeste 0 1015.9 0.2 70
2019-08-10 05:00:00 21.8 6 Noroeste 19 Oeste 0 1015.9 -0.2 69
2019-08-10 04:00:00 22.4 10 Noroeste 28 Noroeste 0 1015.7 -0.2 69
2019-08-10 03:00:00 23.3 19 Noroeste 27 Noroeste 0 1015.7 0 66
2019-08-10 02:00:00 24.7 13 Noroeste 23 Noroeste 0 1016.1 0.9 65
2019-08-10 01:00:00 25.5 9 Noroeste 23 Noroeste 0 1015.9 1.8 64
2019-08-10 00:00:00 25.9 10 Noroeste 26 Noroeste 0 1015.7 2 64
2019-08-09 23:00:00 24.8 5 Oeste 20 Oeste 0 1015.2 1.8 74
2019-08-09 22:00:00 24.5 17 Oeste 28 Sudoeste 0 1014.1 0.7 77
2019-08-09 21:00:00 25.4 21 Sudoeste 35 Sudoeste 0 1013.7 -0.3 74
2019-08-09 20:00:00 25.3 26 Sudoeste 37 Sudoeste 0 1013.4 -1.1 75
2019-08-09 19:00:00 26.8 22 Sudoeste 41 Oeste 0 1013.4 -1.6 71
2019-08-09 18:00:00 26.5 29 Sudoeste 41 Oeste 0 1014 -1.3 72
2019-08-09 17:00:00 27.7 26 Sudoeste 40 Sudoeste 0 1014.5 -0.9 69
2019-08-09 16:00:00 28.1 26 Sudoeste 40 Sudoeste 0 1015 -0.3 67
2019-08-09 15:00:00 28.2 24 Sudoeste 37 Sudoeste 0 1015.3 0 64
2019-08-09 14:00:00 29.8 21 Sudoeste 30 Sudoeste 0 1015.4 0.2 55
2019-08-09 13:00:00 29.5 20 Sur 32 Sur 0 1015.3 0.1 56
2019-08-09 12:00:00 28.4 8 Noroeste 21 Noroeste 0 1015.3 0.5 58
2019-08-09 11:00:00 26.6 10 Noroeste 21 Noroeste 0 1015.2 0.7 64
2019-08-09 10:00:00 24.5 10 Noroeste 18 Noroeste 0 1015.2 1 75
2019-08-09 09:00:00 22.7 7 Noroeste 10 Noroeste 0 1014.8 0.8 82
2019-08-09 08:00:00 21.2 8 Noroeste 11 Noroeste 0 1014.5 0.7 87
2019-08-09 07:00:00 21.4 6 Oeste 12 Oeste 0 1014.2 0.4 85
2019-08-09 06:00:00 21.7 9 Oeste 14 Oeste 0 1014 0.4 83
2019-08-09 05:00:00 22.4 8 Oeste 14 Oeste 0 1013.8 0.2 80
2019-08-09 04:00:00 22.9 10 Oeste 17 Oeste 0 1013.8 0.6 78
2019-08-09 03:00:00 23.4 11 Oeste 18 Noroeste 0 1013.6 0.9 74
2019-08-09 02:00:00 24.3 12 Noroeste 19 Oeste 0 1013.6 1.2 69
2019-08-09 01:00:00 24.3 9 Oeste 14 Noroeste 0 1013.2 1.7 71
2019-08-09 00:00:00 22.9 4 Oeste 6 Oeste 0 1012.7 1.9 76
2019-08-08 23:00:00 23.4 4 Sudoeste 19 Oeste 0 1012.4 1.5 75
2019-08-08 22:00:00 24.1 12 Oeste 28 Sudoeste 0 1011.5 0.3 72
2019-08-08 21:00:00 25 19 Sudoeste 33 Sudoeste 0 1010.8 -0.6 63
2019-08-08 20:00:00 26.4 23 Sudoeste 35 Sudoeste 0 1010.9 -0.8 58
2019-08-08 19:00:00 27.7 24 Sudoeste 37 Sudoeste 0 1011.2 -1 53
2019-08-08 18:00:00 29.4 24 Sudoeste 36 Oeste 0 1011.4 -0.7 44
2019-08-08 17:00:00 30 25 Sudoeste 36 Sudoeste 0 1011.7 -0.7 42
2019-08-08 16:00:00 31.7 22 Sudoeste 34 Sudoeste 0 1012.2 -0.4 40
2019-08-08 15:00:00 32.7 18 Sudoeste 26 Sudoeste 0 1012.1 -0.6 36
2019-08-08 14:00:00 32.4 16 Sudoeste 26 Sudoeste 0 1012.4 0 37
2019-08-08 13:00:00 32.2 9 Sudoeste 22 Sudoeste 0 1012.6 0.1 34
2019-08-08 12:00:00 31 8 Sudeste 14 Sudeste 0 1012.7 0.3 39
2019-08-08 11:00:00 28.6 5 Nordeste 17 Norte 0 1012.4 0.2 46
2019-08-08 10:00:00 25.3 8 Norte 18 Norte 0 1012.5 0.5 57
2019-08-08 09:00:00 23 5 Norte 12 Noroeste 0 1012.4 0.7 64
2019-08-08 08:00:00 21.6 6 Noroeste 16 Noroeste 0 1012.2 0.4 70
2019-08-08 07:00:00 21.8 9 Noroeste 18 Oeste 0 1012 -0.2 68
2019-08-08 06:00:00 22.2 9 Noroeste 19 Noroeste 0 1011.7 -0.7 67
2019-08-08 05:00:00 22.8 7 Noroeste 18 Noroeste 0 1011.8 -0.9 64
2019-08-08 04:00:00 23.4 10 Noroeste 19 Oeste 0 1012.2 -0.5 62
2019-08-08 03:00:00 23.6 9 Noroeste 17 Noroeste 0 1012.4 0 60
2019-08-08 02:00:00 24.5 11 Noroeste 14 Noroeste 0 1012.7 0.8 56
2019-08-08 01:00:00 24.7 4 Sur 10 Oeste 0 1012.7 1.4 62
2019-08-08 00:00:00 26.5 7 Noroeste 12 Noroeste 0 1012.4 1.6 46
2019-08-07 23:00:00 27.4 4 Oeste 10 Noroeste 0 1011.9 1.5 43
2019-08-07 22:00:00 28.6 8 Noroeste 21 Noroeste 0 1011.3 0.6 42
2019-08-07 21:00:00 30.4 12 Noroeste 25 Oeste 0 1010.8 0.1 39
2019-08-07 20:00:00 30.3 15 Oeste 31 Oeste 0 1010.4 -0.6 44
2019-08-07 19:00:00 29.2 23 Oeste 38 Sudoeste 0 1010.7 -0.6 46
2019-08-07 18:00:00 29.3 25 Sudoeste 36 Oeste 0 1010.7 -0.9 47
2019-08-07 17:00:00 30.5 19 Sudoeste 31 Sudoeste 0 1011 -0.8 45
2019-08-07 16:00:00 32.5 18 Sudoeste 27 Sudoeste 0 1011.3 -0.7 40
2019-08-07 15:00:00 31.8 14 Sudoeste 23 Oeste 0 1011.6 -0.4 42
2019-08-07 14:00:00 32.3 10 Oeste 24 Oeste 0 1011.8 -0.3 35
2019-08-07 13:00:00 30.6 12 Noroeste 24 Noroeste 0 1012 0.2 39
2019-08-07 12:00:00 28.6 13 Noroeste 27 Noroeste 0 1012 0.6 48
2019-08-07 11:00:00 25.2 10 Noroeste 21 Noroeste 0 1012.1 1.3 60
2019-08-07 10:00:00 23.4 12 Noroeste 22 Oeste 0 1011.8 1.6 68
2019-08-07 09:00:00 20.7 7 Noroeste 15 Oeste 0 1011.4 1.1 78
2019-08-07 08:00:00 20.3 10 Noroeste 21 Oeste 0 1010.8 0.6 79
2019-08-07 07:00:00 20.5 15 Noroeste 25 Noroeste 0 1010.2 -0.1 77
2019-08-07 06:00:00 21 11 Noroeste 15 Noroeste 0 1010.3 0.2 75
2019-08-07 05:00:00 21.7 8 Noroeste 19 Noroeste 0 1010.2 -0.2 71
2019-08-07 04:00:00 23 10 Noroeste 23 Oeste 0 1010.3 -0.1 68
2019-08-07 03:00:00 23.7 9 Noroeste 27 Noroeste 0 1010.1 -0.4 65
2019-08-07 02:00:00 24.5 12 Noroeste 32 Noroeste 0 1010.4 0.4 61
2019-08-07 01:00:00 25.8 13 Noroeste 22 Noroeste 0 1010.4 1.2 56
2019-08-07 00:00:00 26.5 15 Noroeste 24 Oeste 0 1010.5 1.7 52
2019-08-06 23:00:00 28.3 18 Oeste 24 Noroeste 0 1010 1.4 44
2019-08-06 22:00:00 28.4 17 Oeste 28 Oeste 0 1009.2 0.4 39
2019-08-06 21:00:00 29.6 14 Sudoeste 26 Sudoeste 0 1008.8 -0.6 35
2019-08-06 20:00:00 30.5 19 Sudoeste 34 Oeste 0 1008.6 -1.1 30
2019-08-06 19:00:00 30.6 27 Sudoeste 36 Sudoeste 0 1008.8 -1.7 32
2019-08-06 18:00:00 31.6 25 Oeste 34 Sudoeste 0 1009.4 -1.4 31
2019-08-06 17:00:00 33 20 Sudoeste 31 Sudoeste 0 1009.7 -1.7 32
2019-08-06 16:00:00 31.1 21 Sudoeste 34 Sudoeste 0 1010.5 -1.1 38
2019-08-06 15:00:00 34.3 16 Sudoeste 24 Sur 0 1010.8 -1 28
2019-08-06 14:00:00 32.9 11 Oeste 19 Sudoeste 0 1011.4 -0.7 26
2019-08-06 13:00:00 31.7 13 Sur 22 Sudoeste 0 1011.6 -0.6 40
2019-08-06 12:00:00 29.3 6 Sur 10 Sudeste 0 1011.8 -0.3 38
2019-08-06 11:00:00 25.8 6 Este 17 Este 0 1012.1 0.2 48
2019-08-06 10:00:00 23.5 9 Norte 15 Norte 0 1012.2 0.9 58
2019-08-06 09:00:00 20.6 8 Norte 17 Norte 0 1012.1 1.2 70
2019-08-06 08:00:00 18.4 2 Norte 12 Nordeste 0 1011.9 0.3 68
2019-08-06 07:00:00 20.2 5 Norte 19 Norte 0 1011.3 -0.6 65
2019-08-06 06:00:00 21.1 7 Norte 19 Norte 0 1010.9 -0.9 61
2019-08-06 05:00:00 22 9 Noroeste 30 Noroeste 0 1011.6 -0.3 59
2019-08-06 04:00:00 21.7 4 Noroeste 11 Noroeste 0 1011.9 0.2 60
2019-08-06 03:00:00 22.5 6 Oeste 11 Noroeste 0 1011.8 0.4 56
2019-08-06 02:00:00 23.1 8 Noroeste 11 Noroeste 0 1011.9 0.9 53
2019-08-06 01:00:00 22.5 3 Sur 9 Noroeste 0 1011.7 1.3 61
2019-08-06 00:00:00 22.8 4 Noroeste 8 Noroeste 0 1011.4 1.3 52
2019-08-05 23:00:00 23 5 Sudeste 11 Sur 0 1011 1 58
2019-08-05 22:00:00 25.1 4 Sudoeste 13 Sudoeste 0 1010.4 0.1 48
2019-08-05 21:00:00 28.8 10 Sudoeste 17 Sudoeste 0 1010.1 -0.3 30
2019-08-05 20:00:00 30 12 Sudoeste 29 Sudoeste 0 1010 -0.6 30
2019-08-05 19:00:00 29.6 20 Sudoeste 35 Sudoeste 0 1010.3 -0.8 36
2019-08-05 18:00:00 30.9 24 Sudoeste 35 Sudoeste 0 1010.4 -0.9 33
2019-08-05 17:00:00 33.2 23 Sudoeste 34 Sudoeste 0 1010.6 -1 28
2019-08-05 16:00:00 33.1 20 Sudoeste 31 Sudoeste 0 1011.1 -1.1 28
2019-08-05 15:00:00 34.2 20 Sudoeste 28 Sudoeste 0 1011.3 -1.2 23
2019-08-05 14:00:00 33.9 12 Sudoeste 22 Sudoeste 0 1011.6 -1.1 25
2019-08-05 13:00:00 31.6 12 Oeste 20 Noroeste 0 1012.2 -0.8 30
2019-08-05 12:00:00 28.3 13 Noroeste 21 Noroeste 0 1012.5 -0.3 41
2019-08-05 11:00:00 24.8 11 Noroeste 21 Oeste 0 1012.7 0.3 51
2019-08-05 10:00:00 22.2 11 Noroeste 18 Noroeste 0 1013 0.8 58
2019-08-05 09:00:00 20.3 6 Norte 19 Noroeste 0 1012.8 0.8 65
2019-08-05 08:00:00 18.9 10 Noroeste 24 Noroeste 0 1012.4 0.4 69
2019-08-05 07:00:00 19.5 12 Noroeste 27 Noroeste 0 1012.2 0.1 67
2019-08-05 06:00:00 20.2 13 Noroeste 27 Noroeste 0 1012 -0.5 64
2019-08-05 05:00:00 20.9 13 Noroeste 24 Noroeste 0 1012 -0.4 61
2019-08-05 04:00:00 21.6 14 Noroeste 27 Noroeste 0 1012.1 -0.3 59
2019-08-05 03:00:00 22.8 12 Noroeste 32 Noroeste 0 1012.5 0.4 55
2019-08-05 02:00:00 24.1 17 Noroeste 31 Noroeste 0 1012.4 0.8 53
2019-08-05 01:00:00 25.7 17 Noroeste 28 Noroeste 0 1012.4 1.6 50
2019-08-05 00:00:00 27.2 14 Noroeste 27 Noroeste 0 1012.1 1.6 44
2019-08-04 23:00:00 28.4 14 Noroeste 26 Noroeste 0 1011.6 1.3 41
2019-08-04 22:00:00 28.8 14 Oeste 33 Oeste 0 1010.8 0.4 40
2019-08-04 21:00:00 30.1 23 Oeste 36 Oeste 0 1010.5 0 37
2019-08-04 20:00:00 30.6 27 Oeste 42 Sudoeste 0 1010.3 -0.5 38
2019-08-04 19:00:00 31 26 Sudoeste 42 Sudoeste 0 1010.4 -1 37
2019-08-04 18:00:00 31.4 25 Sudoeste 36 Sudoeste 0 1010.5 -1.1 37
2019-08-04 17:00:00 30.9 26 Sudoeste 35 Sudoeste 0 1010.8 -1.3 40
2019-08-04 16:00:00 31.5 22 Sudoeste 31 Sudoeste 0 1011.4 -1.3 40
2019-08-04 15:00:00 34.5 17 Sudoeste 29 Sudoeste 0 1011.6 -1.4 34
2019-08-04 14:00:00 33.4 11 Noroeste 23 Oeste 0 1012.1 -1.1 29
2019-08-04 13:00:00 31.1 9 Noroeste 21 Noroeste 0 1012.7 -0.6 39
2019-08-04 12:00:00 28.4 9 Noroeste 19 Noroeste 0 1013 -0.2 49
2019-08-04 11:00:00 25.7 7 Noroeste 22 Noroeste 0 1013.2 0.4 58
2019-08-04 10:00:00 23.1 8 Noroeste 22 Oeste 0 1013.3 1 67
2019-08-04 09:00:00 21.3 7 Norte 17 Norte 0 1013.2 1.2 73
2019-08-04 08:00:00 20.3 8 Norte 17 Norte 0 1012.8 0.8 76
2019-08-04 07:00:00 20.8 5 Noroeste 21 Oeste 0 1012.3 0.4 73
2019-08-04 06:00:00 21.3 6 Noroeste 17 Oeste 0 1012 0 71
2019-08-04 05:00:00 21.9 4 Norte 17 Noroeste 0 1012 0.1 69
2019-08-04 04:00:00 21.9 8 Noroeste 15 Noroeste 0 1011.9 0.1 69
2019-08-04 03:00:00 20.8 4 Noroeste 5 Oeste 0 1012 0.2 79
2019-08-04 02:00:00 21 0 Calma 3 Nordeste 0 1011.9 0.4 76
2019-08-04 01:00:00 21.6 3 Nordeste 9 Sur 0 1011.8 0.9 72
2019-08-04 00:00:00 21.4 5 Sur 13 Sur 0 1011.8 1.3 75
2019-08-03 23:00:00 21.8 7 Sur 15 Sur 0 1011.5 1.2 71
2019-08-03 22:00:00 23.1 10 Sur 15 Sudoeste 0 1010.9 0.5 59
2019-08-03 21:00:00 25 12 Sudoeste 27 Sudoeste 0 1010.5 -0.3 51
2019-08-03 20:00:00 27.4 18 Sudoeste 29 Sudoeste 0 1010.3 -1 42
2019-08-03 19:00:00 30.2 17 Sudoeste 32 Sudoeste 0 1010.4 -1.4 39
2019-08-03 18:00:00 29.7 23 Sudoeste 34 Sudoeste 0 1010.8 -1.3 41
2019-08-03 17:00:00 29.7 21 Sudoeste 29 Sudoeste 0 1011.3 -0.9 41
2019-08-03 16:00:00 30.2 20 Sur 30 Sur 0 1011.8 -0.8 41
2019-08-03 15:00:00 31 21 Sur 28 Sudoeste 0 1012.1 -0.4 36
2019-08-03 14:00:00 31.6 12 Sudoeste 21 Sur 0 1012.2 -0.3 36
2019-08-03 13:00:00 30.2 9 Sur 19 Sudoeste 0 1012.6 0.2 38
2019-08-03 12:00:00 27.7 5 Noroeste 17 Oeste 0 1012.5 0.3 43
2019-08-03 11:00:00 25.5 6 Noroeste 18 Norte 0 1012.5 0.9 47
2019-08-03 10:00:00 22.3 10 Norte 19 Norte 0 1012.4 1.2 57
2019-08-03 09:00:00 20.2 9 Norte 18 Nordeste 0 1012.2 1.3 65
2019-08-03 08:00:00 18.7 6 Norte 19 Oeste 0 1011.6 0.7 71
2019-08-03 07:00:00 19.4 8 Noroeste 22 Noroeste 0 1011.2 0 69
2019-08-03 06:00:00 20.2 8 Noroeste 15 Oeste 0 1010.9 -0.4 68
2019-08-03 05:00:00 21.2 6 Noroeste 17 Oeste 0 1010.9 -0.4 64
2019-08-03 04:00:00 22.1 8 Noroeste 18 Oeste 0 1011.2 0 63
2019-08-03 03:00:00 22.4 11 Noroeste 18 Noroeste 0 1011.3 0.3 61
2019-08-03 02:00:00 23.6 12 Noroeste 18 Noroeste 0 1011.3 0.3 57
2019-08-03 01:00:00 24.3 9 Noroeste 18 Noroeste 0 1011.2 0.6 48
2019-08-03 00:00:00 24.6 9 Noroeste 14 Oeste 0 1011 0.4 42
2019-08-02 23:00:00 24.6 4 Sur 12 Oeste 0 1011 0.4 49
2019-08-02 22:00:00 26.6 7 Sudoeste 18 Sudoeste 0 1010.6 -0.3 36
2019-08-02 21:00:00 28.4 10 Sudoeste 23 Oeste 0 1010.6 -0.5 35
2019-08-02 20:00:00 29.8 16 Sudoeste 32 Oeste 0 1010.6 -1 28
2019-08-02 19:00:00 29.8 20 Sudoeste 35 Sudoeste 0 1010.9 -0.9 30
2019-08-02 18:00:00 29.9 24 Sudoeste 36 Sudoeste 0 1011.1 -0.7 32
2019-08-02 17:00:00 30.3 26 Sudoeste 35 Sudoeste 0 1011.6 -0.6 35
2019-08-02 16:00:00 31.7 23 Sudoeste 32 Sudoeste 0 1011.8 -0.9 33
2019-08-02 15:00:00 34 10 Oeste 23 Oeste 0 1011.8 -1 22
2019-08-02 14:00:00 32.6 12 Oeste 24 Noroeste 0 1012.2 -0.7 24
2019-08-02 13:00:00 30.5 12 Noroeste 23 Noroeste 0 1012.7 -0.2 31
2019-08-02 12:00:00 27.9 11 Noroeste 24 Noroeste 0 1012.8 0.1 40
2019-08-02 11:00:00 24.5 10 Noroeste 28 Noroeste 0 1012.9 0.7 49
2019-08-02 10:00:00 21.2 13 Noroeste 26 Noroeste 0 1012.9 1.1 59
2019-08-02 09:00:00 19.7 6 Noroeste 15 Nordeste 0 1012.7 1.1 63
2019-08-02 08:00:00 18.5 8 Norte 28 Noroeste 0 1012.2 0.6 63
2019-08-02 07:00:00 19 9 Noroeste 27 Noroeste 0 1011.8 0.2 61
2019-08-02 06:00:00 19.9 9 Noroeste 22 Oeste 0 1011.6 -0.1 56
2019-08-02 05:00:00 20.8 9 Noroeste 22 Noroeste 0 1011.6 -0.2 52
2019-08-02 04:00:00 21.9 10 Noroeste 27 Noroeste 0 1011.6 -0.1 51
2019-08-02 03:00:00 23.4 14 Noroeste 30 Oeste 0 1011.7 0.1 45
2019-08-02 02:00:00 25.2 14 Noroeste 32 Noroeste 0 1011.8 0.7 39
2019-08-02 01:00:00 26.2 13 Noroeste 30 Noroeste 0 1011.7 1.6 38
2019-08-02 00:00:00 25.4 11 Noroeste 21 Oeste 0 1011.6 2 37
2019-08-01 23:00:00 27.2 17 Oeste 32 Oeste 0 1011.1 2.1 31
2019-08-01 22:00:00 27.8 21 Oeste 32 Oeste 0 1010.1 0.8 29
2019-08-01 21:00:00 29.1 21 Sudoeste 32 Oeste 0 1009.6 0 31
2019-08-01 20:00:00 29.7 22 Sudoeste 34 Sudoeste 0 1009 -1.1 33
2019-08-01 19:00:00 29.9 22 Sudoeste 31 Sudoeste 0 1009.3 -0.9 34
2019-08-01 18:00:00 30 22 Sudoeste 36 Sudoeste 0 1009.6 -1 37
2019-08-01 17:00:00 30.2 26 Sudoeste 36 Sudoeste 0 1010.1 -1.3 46
2019-08-01 16:00:00 32.6 20 Sur 31 Sudoeste 0 1010.2 -1.4 43
2019-08-01 15:00:00 32.1 14 Sudoeste 26 Sur 0 1010.6 -1.1 46
2019-08-01 14:00:00 30.3 17 Sudoeste 30 Sudoeste 0 1011.4 -0.1 54
2019-08-01 13:00:00 30 17 Sudoeste 28 Sur 0 1011.6 0.2 56
2019-08-01 12:00:00 28.5 10 Sudoeste 17 Sudoeste 0 1011.7 0.6 56
2019-08-01 11:00:00 26.7 6 Sudoeste 13 Oeste 0 1011.5 0.8 53
2019-08-01 10:00:00 23.4 9 Norte 19 Nordeste 0 1011.4 1 48
2019-08-01 09:00:00 20.8 10 Norte 19 Norte 0 1011.1 1.2 54
2019-08-01 08:00:00 20.2 9 Norte 19 Norte 0 1010.7 0.8 54
2019-08-01 07:00:00 20.6 5 Noroeste 13 Oeste 0 1010.4 0.4 52
2019-08-01 06:00:00 20.9 5 Noroeste 10 Noroeste 0 1009.9 0 49
2019-08-01 05:00:00 21.4 3 Noroeste 19 Norte 0 1009.9 0.1 44
2019-08-01 04:00:00 21.8 0 Calma 11 Noroeste 0 1010 0.3 44
2019-08-01 03:00:00 23.5 7 Noroeste 24 Noroeste 0 1009.9 0.3 40
2019-08-01 02:00:00 24.7 15 Oeste 22 Oeste 0 1009.8 0.3 36
2019-08-01 01:00:00 26.2 15 Oeste 21 Oeste 0 1009.7 1.2 34
2019-08-01 00:00:00 26.4 14 Oeste 23 Oeste 0 1009.6 1.6 44
2019-07-31 23:00:00 26.2 18 Oeste 27 Oeste 0 1009.5 1.8 55
2019-07-31 22:00:00 26.9 17 Oeste 32 Oeste 0 1008.5 0.6 56
2019-07-31 21:00:00 27.7 21 Sudoeste 33 Sudoeste 0 1008 -0.1 58
2019-07-31 20:00:00 29 22 Sudoeste 31 Sudoeste 0 1007.7 -1 54
2019-07-31 19:00:00 30.7 20 Sudoeste 30 Sudoeste 0 1007.9 -1.3 49
2019-07-31 18:00:00 32.4 18 Sudoeste 27 Sudoeste 0 1008.1 -1.6 44
2019-07-31 17:00:00 32.4 18 Sudoeste 31 Sudoeste 0 1008.7 -1.3 37
2019-07-31 16:00:00 31.8 19 Sudoeste 30 Sudoeste 0 1009.2 -1.2 37
2019-07-31 15:00:00 31.8 17 Sudoeste 26 Sudoeste 0 1009.7 -1 37
2019-07-31 14:00:00 31.9 14 Sudoeste 27 Sudoeste 0 1010 -0.6 36
2019-07-31 13:00:00 30.8 10 Sudoeste 19 Sur 0 1010.4 0.2 39
2019-07-31 12:00:00 29.3 10 Sur 22 Sur 0 1010.7 0.9 42
2019-07-31 11:00:00 27.1 4 Oeste 9 Oeste 0 1010.6 0.9 38
2019-07-31 10:00:00 22.8 4 Noroeste 17 Norte 0 1010.2 0.7 45
2019-07-31 09:00:00 19.6 9 Norte 17 Norte 0 1009.8 0.3 54
2019-07-31 08:00:00 18 8 Noroeste 24 Noroeste 0 1009.7 0.6 59
2019-07-31 07:00:00 18.8 12 Noroeste 21 Oeste 0 1009.5 0.3 56
2019-07-31 06:00:00 19.5 4 Norte 16 Nordeste 0 1009.5 0.1 54
2019-07-31 05:00:00 20.5 4 Noroeste 20 Oeste 0 1009.1 -0.6 51
2019-07-31 04:00:00 21.9 12 Noroeste 30 Noroeste 0 1009.2 -0.7 48
2019-07-31 03:00:00 23.1 11 Noroeste 27 Noroeste 0 1009.4 -0.5 45
2019-07-31 02:00:00 24.6 13 Noroeste 32 Oeste 0 1009.7 0.4 38
2019-07-31 01:00:00 25.6 13 Noroeste 28 Noroeste 0 1009.9 1.3 27
2019-07-31 00:00:00 26.8 12 Noroeste 26 Oeste 0 1009.9 1.9 17
2019-07-30 23:00:00 28.9 13 Noroeste 23 Noroeste 0 1009.3 1.4 14
2019-07-30 22:00:00 30.2 11 Noroeste 28 Oeste 0 1008.6 0.5 14
2019-07-30 21:00:00 33.1 15 Noroeste 37 Noroeste 0 1008 -0.7 12
2019-07-30 20:00:00 35 21 Noroeste 41 Noroeste 0 1007.9 -1.2 11
2019-07-30 19:00:00 35.8 22 Noroeste 41 Oeste 0 1008.1 -1.8 11
2019-07-30 18:00:00 36.1 18 Noroeste 37 Noroeste 0 1008.7 -1.8 10
2019-07-30 17:00:00 35.9 18 Noroeste 35 Noroeste 0 1009.1 -2.4 10
2019-07-30 16:00:00 35.7 9 Noroeste 32 Noroeste 0 1009.9 -2.1 11
2019-07-30 15:00:00 34.1 15 Noroeste 31 Norte 0 1010.5 -1.8 14
2019-07-30 14:00:00 32.4 14 Norte 24 Noroeste 0 1011.5 -1.1 18
2019-07-30 13:00:00 30.7 13 Noroeste 30 Norte 0 1012 -0.8 22
2019-07-30 12:00:00 28 15 Norte 31 Nordeste 0 1012.3 -0.4 29
2019-07-30 11:00:00 24.7 13 Norte 31 Norte 0 1012.6 0.1 39
2019-07-30 10:00:00 21 10 Norte 25 Norte 0 1012.8 0.5 52
2019-07-30 09:00:00 18.3 10 Noroeste 29 Noroeste 0 1012.7 0.4 62
2019-07-30 08:00:00 16.7 13 Noroeste 27 Oeste 0 1012.5 0.2 68
2019-07-30 07:00:00 17.1 10 Oeste 24 Noroeste 0 1012.3 0.2 67
2019-07-30 06:00:00 17.7 11 Noroeste 29 Oeste 0 1012.3 -0.2 64
2019-07-30 05:00:00 18.6 9 Noroeste 32 Norte 0 1012.3 0 59
2019-07-30 04:00:00 19.7 18 Noroeste 39 Noroeste 0 1012.1 0.1 53
2019-07-30 03:00:00 21.2 15 Noroeste 34 Noroeste 0 1012.5 0.9 47
2019-07-30 02:00:00 22.7 9 Noroeste 30 Norte 0 1012.3 1.3 44
2019-07-30 01:00:00 24.6 10 Noroeste 31 Norte 0 1012 1.9 37
2019-07-30 00:00:00 26.3 9 Noroeste 30 Oeste 0 1011.6 2.2 32
2019-07-29 23:00:00 27.8 12 Noroeste 31 Oeste 0 1011 1.6 30
2019-07-29 22:00:00 29.8 8 Norte 29 Norte 0 1010.1 0.7 27
2019-07-29 21:00:00 31.9 19 Noroeste 37 Noroeste 0 1009.4 -0.2 27
2019-07-29 20:00:00 32.2 21 Noroeste 35 Noroeste 0 1009.4 -0.4 28
2019-07-29 19:00:00 30.4 24 Sudoeste 35 Sudoeste 0 1009.4 -0.7 44
2019-07-29 18:00:00 31.1 21 Sudoeste 32 Oeste 0 1009.6 -0.9 45
2019-07-29 17:00:00 31.4 22 Sudoeste 33 Sudoeste 0 1009.8 -1.2 43
2019-07-29 16:00:00 33.4 19 Oeste 37 Oeste 0 1010.1 -1.4 34
2019-07-29 15:00:00 31.9 13 Noroeste 30 Noroeste 0 1010.5 -1.1 38
2019-07-29 14:00:00 30.6 15 Noroeste 37 Noroeste 0 1011 -0.7 40
2019-07-29 13:00:00 29.2 12 Noroeste 27 Norte 0 1011.5 0 43
2019-07-29 12:00:00 27.2 14 Noroeste 33 Norte 0 1011.6 0.3 45
2019-07-29 11:00:00 24.7 18 Norte 32 Norte 0 1011.7 0.9 48
2019-07-29 10:00:00 21.9 11 Noroeste 26 Noroeste 0 1011.5 1.6 52
2019-07-29 09:00:00 19.9 9 Norte 24 Noroeste 0 1011.3 1.9 59
2019-07-29 08:00:00 18.5 8 Noroeste 22 Oeste 0 1010.8 1.5 63
2019-07-29 07:00:00 19.2 10 Noroeste 28 Oeste 0 1009.9 0.7 62
2019-07-29 06:00:00 19.9 11 Noroeste 26 Noroeste 0 1009.4 0.1 62
2019-07-29 05:00:00 20.6 9 Noroeste 24 Oeste 0 1009.3 0 62
2019-07-29 04:00:00 21.7 9 Noroeste 26 Noroeste 0 1009.2 0 59
2019-07-29 03:00:00 22.5 13 Noroeste 26 Noroeste 0 1009.3 0.3 58
2019-07-29 02:00:00 23.5 15 Noroeste 26 Noroeste 0 1009.3 0.6 55
2019-07-29 01:00:00 24.3 13 Noroeste 25 Noroeste 0 1009.2 1.1 55
2019-07-29 00:00:00 23.9 11 Oeste 17 Oeste 0 1009 1.3 59
2019-07-28 23:00:00 23.6 13 Sudoeste 32 Sudoeste 0 1008.7 1.2 59
2019-07-28 22:00:00 24.1 18 Sudoeste 31 Sudoeste 0 1008.1 0.7 58
2019-07-28 21:00:00 25.5 19 Sudoeste 31 Sudoeste 0 1007.7 0.1 54
2019-07-28 20:00:00 26.6 20 Sudoeste 37 Sudoeste 0 1007.5 -0.5 50
2019-07-28 19:00:00 26.7 24 Sudoeste 37 Sudoeste 0 1007.4 -1.1 50
2019-07-28 18:00:00 27.8 26 Sudoeste 37 Oeste 0 1007.6 -1.2 47
2019-07-28 17:00:00 27.6 25 Sudoeste 36 Sudoeste 0 1008 -0.8 50
2019-07-28 16:00:00 27.3 27 Sudoeste 37 Sudoeste 0 1008.5 -1 52
2019-07-28 15:00:00 28.3 24 Sudoeste 34 Oeste 0 1008.8 -0.8 50
2019-07-28 14:00:00 29.6 5 Noroeste 17 Este 0 1008.8 -1 41
2019-07-28 13:00:00 28.6 9 Este 17 Sudeste 0 1009.5 -0.5 45
2019-07-28 12:00:00 26.3 4 Noroeste 14 Norte 0 1009.6 -0.2 52
2019-07-28 11:00:00 23.7 8 Norte 15 Norte 0 1009.8 0.2 62
2019-07-28 10:00:00 21.4 8 Norte 15 Nordeste 0 1010 0.6 73
2019-07-28 09:00:00 19.2 8 Norte 17 Norte 0 1009.8 0.7 83
2019-07-28 08:00:00 17.6 5 Norte 11 Noroeste 0 1009.6 0.3 90
2019-07-28 07:00:00 17.1 6 Noroeste 10 Oeste 0 1009.4 -0.1 89
2019-07-28 06:00:00 17.4 8 Noroeste 12 Noroeste 0 1009.1 -0.7 86
2019-07-28 05:00:00 17.7 6 Noroeste 12 Oeste 0 1009.3 -0.9 83
2019-07-28 04:00:00 18.2 8 Noroeste 14 Noroeste 0 1009.5 -0.9 80
2019-07-28 03:00:00 18.9 11 Noroeste 16 Noroeste 0 1009.8 -0.5 76
2019-07-28 02:00:00 19.4 13 Noroeste 19 Noroeste 0 1010.2 0.3 74
2019-07-28 01:00:00 20.1 14 Noroeste 22 Oeste 0 1010.4 1.2 69
2019-07-28 00:00:00 21.2 10 Noroeste 19 Noroeste 0 1010.3 1.5 63
2019-07-27 23:00:00 22.5 15 Noroeste 27 Noroeste 0 1009.9 1 59
2019-07-26 12:00:00 24.6 17 Noroeste 36 Noroeste 0 1013.8 0.3 48
2019-07-26 11:00:00 22.3 14 Noroeste 36 Noroeste 0 1014.2 1 58
2019-07-26 10:00:00 20.7 16 Noroeste 36 Oeste 0 1013.9 1 65
2019-07-26 09:00:00 19.9 13 Noroeste 31 Oeste 0 1013.5 1 67
2019-07-26 08:00:00 19.6 12 Noroeste 27 Noroeste 0 1013.2 1 68
2019-07-26 07:00:00 20.3 9 Noroeste 19 Noroeste 0 1012.9 0.8 72
2019-07-26 06:00:00 20.8 11 Noroeste 25 Noroeste 0 1012.5 0.2 74
2019-07-26 05:00:00 21.8 13 Noroeste 26 Noroeste 0 1012.2 -0.2 72
2019-07-26 04:00:00 22.6 7 Noroeste 23 Noroeste 0 1012.1 -0.3 74
2019-07-26 03:00:00 23.2 9 Oeste 28 Noroeste 0 1012.3 0.2 73
2019-07-26 02:00:00 23.8 13 Noroeste 32 Noroeste 0 1012.4 1.1 70
2019-07-26 01:00:00 24.5 17 Noroeste 34 Noroeste 0 1012.4 1.6 68
2019-07-26 00:00:00 25.7 18 Noroeste 41 Noroeste 0 1012.1 1.5 62
2019-07-25 23:00:00 26.9 17 Oeste 25 Oeste 0 1011.3 0.7 53
2019-07-25 22:00:00 26.5 16 Sudoeste 26 Oeste 0 1010.8 0.2 57
2019-07-25 21:00:00 27.3 18 Sudoeste 38 Sudoeste 0 1010.6 -0.6 57
2019-07-25 20:00:00 28.8 22 Oeste 35 Oeste 0 1010.6 -0.6 47
2019-07-25 19:00:00 28.7 24 Sudoeste 39 Sudoeste 0 1010.6 -0.7 53
2019-07-25 18:00:00 28.6 26 Sudoeste 37 Sudoeste 0 1011.2 -0.5 57
2019-07-25 17:00:00 30.5 21 Sudoeste 31 Oeste 0 1011.2 -0.9 54
2019-07-25 16:00:00 32.1 21 Sudoeste 29 Sur 0 1011.3 -0.9 47
2019-07-25 15:00:00 31.7 15 Sudoeste 30 Sudoeste 0 1011.7 -0.3 45
2019-07-25 14:00:00 31.1 22 Sur 31 Sur 0 1012.1 -0.2 47
2019-07-25 13:00:00 31.6 13 Sur 22 Sudoeste 0 1012.2 -0.1 44
2019-07-25 12:00:00 29.5 9 Noroeste 20 Oeste 0 1012 -0.1 49
2019-07-25 11:00:00 26.8 8 Noroeste 19 Noroeste 0 1012.3 0.9 57
2019-07-25 10:00:00 24.2 6 Norte 13 Norte 0 1012.3 1.3 66
2019-07-25 09:00:00 21.6 5 Norte 14 Noroeste 0 1012.1 1.3 78
2019-07-25 08:00:00 20 9 Noroeste 14 Oeste 0 1011.4 0.3 83
2019-07-25 07:00:00 20.9 7 Norte 17 Norte 0 1011 -0.1 75
2019-07-25 06:00:00 21.1 5 Noroeste 15 Noroeste 0 1010.8 -0.8 75
2019-07-25 05:00:00 21.4 8 Norte 15 Norte 0 1011.1 -0.8 72
2019-07-25 04:00:00 22.4 6 Noroeste 15 Oeste 0 1011.1 -0.6 66
2019-07-25 03:00:00 23.3 6 Noroeste 12 Oeste 0 1011.6 0.1 59
2019-07-25 02:00:00 23.7 6 Oeste 12 Oeste 0 1011.9 1 66
2019-07-25 01:00:00 24 5 Sur 12 Sur 0 1011.7 1.5 85
2019-07-25 00:00:00 24.5 2 Sur 14 Oeste 0 1011.5 1.7 80
2019-07-24 23:00:00 25.7 11 Oeste 16 Sudoeste 0 1010.9 1.3 72
2019-07-24 22:00:00 26.6 10 Sudoeste 19 Sudoeste 0 1010.2 0.6 67
2019-07-24 21:00:00 27.8 15 Sudoeste 25 Sudoeste 0 1009.8 -0.3 63
2019-07-24 20:00:00 29 20 Sudoeste 27 Sudoeste 0 1009.6 -1.1 58
2019-07-24 19:00:00 31.1 15 Sudoeste 25 Sudoeste 0 1009.6 -1.5 53
2019-07-24 18:00:00 32.3 17 Sudoeste 27 Sudoeste 0 1010.1 -1.2 49
2019-07-24 17:00:00 32.4 15 Sudoeste 31 Sur 0 1010.7 -1.1 48
2019-07-24 16:00:00 31.8 19 Sudoeste 32 Sudoeste 0 1011.1 -1.1 49
2019-07-24 15:00:00 32.5 18 Sudoeste 27 Oeste 0 1011.3 -0.9 44
2019-07-24 14:00:00 32 17 Sur 26 Sudoeste 0 1011.8 -0.3 45
2019-07-24 13:00:00 32 13 Sudoeste 25 Sur 0 1012.2 0.1 43
2019-07-24 12:00:00 30.6 9 Sur 18 Sur 0 1012.2 0.1 43
2019-07-24 11:00:00 29.3 3 Norte 9 Norte 0 1012.1 0.4 44
2019-07-24 10:00:00 26 6 Norte 16 Norte 0 1012.1 0.7 52
2019-07-24 09:00:00 23.5 9 Norte 23 Norte 0 1012.1 0.9 57
2019-07-24 08:00:00 22.8 10 Norte 25 Norte 0 1011.7 0.3 60
2019-07-24 07:00:00 22.2 4 Noroeste 7 Noroeste 0 1011.4 -0.3 70
2019-07-24 06:00:00 22.9 2 Sudeste 13 Noroeste 0 1011.2 -0.9 67
2019-07-24 05:00:00 24 11 Noroeste 15 Noroeste 0 1011.4 -1.1 60
2019-07-24 04:00:00 24.3 12 Oeste 15 Oeste 0 1011.7 -1 58
2019-07-24 03:00:00 25 9 Noroeste 14 Oeste 0 1012.1 -0.5 65
2019-07-24 02:00:00 24.9 12 Noroeste 18 Oeste 0 1012.5 0.6 84
2019-07-24 01:00:00 24.6 4 Sudoeste 10 Sur 0 1012.7 1.5 85
2019-07-24 00:00:00 25.1 8 Sur 13 Oeste 0 1012.6 1.5 85
2019-07-23 23:00:00 25.6 12 Sur 16 Sudoeste 0 1011.9 1 79
2019-07-23 22:00:00 27.3 8 Sudoeste 17 Sudoeste 0 1011.2 0 70
2019-07-23 21:00:00 28.2 14 Sudoeste 21 Sudoeste 0 1011.1 -0.5 68
2019-07-23 20:00:00 29.7 13 Sudoeste 26 Oeste 0 1010.9 -1.1 61
2019-07-23 19:00:00 30.6 16 Sudoeste 23 Sudoeste 0 1011.2 -1.1 59
2019-07-23 18:00:00 30.9 19 Sudoeste 30 Sudoeste 0 1011.6 -0.8 58
2019-07-23 17:00:00 30.8 21 Sudoeste 30 Sudoeste 0 1012 -0.9 60
2019-07-23 16:00:00 30.7 22 Sudoeste 31 Sudoeste 0 1012.3 -0.8 58
2019-07-23 15:00:00 31.6 16 Sudoeste 27 Sur 0 1012.4 -0.6 56
2019-07-23 14:00:00 31.6 14 Sudoeste 26 Oeste 0 1012.9 -0.3 54
2019-07-23 13:00:00 30.6 15 Sudoeste 27 Sur 0 1013.1 -0.1 59
2019-07-23 12:00:00 29.7 15 Sur 25 Sudoeste 0 1013 0 61
2019-07-23 11:00:00 29.4 12 Sur 22 Sur 0 1013.2 0.4 60
2019-07-23 10:00:00 27.5 4 Sur 12 Sur 0 1013.2 0.7 66
2019-07-23 09:00:00 25.2 4 Norte 8 Noroeste 0 1013 0.7 77
2019-07-23 08:00:00 23.3 0 Calma 8 Norte 0 1012.8 0.3 81
2019-07-23 07:00:00 23.8 2 Norte 8 Oeste 0 1012.5 -0.5 80
2019-07-23 06:00:00 24.4 6 Oeste 14 Sudoeste 0 1012.3 -0.9 80
2019-07-23 05:00:00 24.7 9 Sudoeste 14 Sudoeste 0 1012.5 -1 78
2019-07-23 04:00:00 24.9 11 Oeste 18 Sudoeste 0 1013 -0.8 75
2019-07-23 03:00:00 25.3 13 Oeste 17 Oeste 0 1013.2 -0.4 73
2019-07-23 02:00:00 25.3 8 Oeste 18 Oeste 0 1013.5 0.5 73
2019-07-23 01:00:00 25.5 13 Oeste 23 Oeste 0 1013.8 1.7 73
2019-07-23 00:00:00 26.3 14 Sudoeste 24 Sudoeste 0 1013.6 1.9 71
2019-07-22 23:00:00 26.2 14 Oeste 25 Sudoeste 0 1013 1.5 71
2019-07-22 22:00:00 26.8 17 Sudoeste 31 Oeste 0 1012.1 0.3 70
2019-07-22 21:00:00 28.4 21 Sudoeste 29 Sudoeste 0 1011.7 -0.6 63
2019-07-22 20:00:00 31.7 15 Sudoeste 26 Sudoeste 0 1011.5 -1.4 50
2019-07-22 19:00:00 32.4 18 Sudoeste 28 Oeste 0 1011.8 -1.8 50
2019-07-22 18:00:00 33.2 18 Sudoeste 28 Sudoeste 0 1012.3 -1.9 46
2019-07-22 17:00:00 33.9 15 Sudoeste 29 Sur 0 1012.9 -1.8 44
2019-07-22 16:00:00 33.7 17 Sudoeste 30 Sudoeste 0 1013.6 -1.3 45
2019-07-22 15:00:00 33.5 14 Sudoeste 29 Sudoeste 0 1014.2 -1 47
2019-07-22 14:00:00 32.8 11 Sudoeste 24 Oeste 0 1014.7 -0.4 49
2019-07-22 13:00:00 32.2 13 Sur 24 Sudoeste 0 1014.9 -0.4 51
2019-07-22 12:00:00 31.1 6 Sur 17 Sur 0 1015.2 0.4 52
2019-07-22 11:00:00 29.1 4 Oeste 11 Noroeste 0 1015.1 0.5 57
2019-07-22 10:00:00 26.9 4 Noroeste 7 Norte 0 1015.3 0.8 58
2019-07-22 09:00:00 24.2 4 Nordeste 11 Norte 0 1014.8 0.1 65
2019-07-22 08:00:00 21.6 5 Nordeste 9 Nordeste 0 1014.6 -0.1 70
2019-07-22 07:00:00 21.7 6 Nordeste 10 Nordeste 0 1014.5 -0.5 69
2019-07-22 06:00:00 22.4 8 Nordeste 12 Nordeste 0 1014.7 -0.3 66
2019-07-22 05:00:00 24.7 6 Sudoeste 16 Sudoeste 0 1014.7 -0.5 74
2019-07-22 04:00:00 24.9 9 Sudoeste 21 Sudoeste 0 1015 -0.1 71
2019-07-22 03:00:00 25.7 12 Sudoeste 23 Sudoeste 0 1015 0.4 64
2019-07-22 02:00:00 25.2 13 Sudoeste 20 Sur 0 1015.2 1.3 63
2019-07-22 01:00:00 24 8 Sur 13 Sur 0 1015.1 2.1 61
2019-07-22 00:00:00 24.1 8 Sur 13 Sur 0 1014.6 1.8 63
2019-07-21 23:00:00 24.6 10 Sur 13 Sur 0 1013.9 1.2 58
2019-07-21 22:00:00 25.8 7 Sur 12 Sudoeste 0 1013 0.3 54
2019-07-21 21:00:00 28.2 9 Sudoeste 19 Sudoeste 0 1012.8 -0.2 46
2019-07-21 20:00:00 28.7 12 Sudoeste 27 Sudoeste 0 1012.7 -0.8 46
2019-07-21 19:00:00 28.7 16 Sudoeste 27 Sudoeste 0 1012.7 -1.3 50
2019-07-21 18:00:00 30 18 Sudoeste 28 Sudoeste 0 1013 -1.5 49
2019-07-21 17:00:00 31.9 18 Sudoeste 28 Sur 0 1013.5 -1.2 46
2019-07-21 16:00:00 31.8 19 Sur 28 Sur 0 1014 -0.6 45
2019-07-21 15:00:00 30.4 22 Sur 29 Sur 0 1014.5 0.3 54
2019-07-21 14:00:00 29.9 22 Sur 30 Sur 0 1014.7 0.6 55
2019-07-21 13:00:00 30.9 21 Sur 29 Sur 0 1014.6 0.4 49
2019-07-21 12:00:00 31.3 5 Oeste 13 Norte 0 1014.2 0.2 35
2019-07-21 11:00:00 28.2 8 Norte 17 Norte 0 1014.1 0.5 42
2019-07-21 10:00:00 25 10 Norte 18 Norte 0 1014.2 0.8 49
2019-07-21 09:00:00 22.7 7 Norte 18 Norte 0 1014 0.6 54
2019-07-21 08:00:00 21.7 5 Norte 19 Noroeste 0 1013.6 0.5 58
2019-07-21 07:00:00 22.3 9 Noroeste 20 Noroeste 0 1013.4 0.7 58
2019-07-21 06:00:00 23.7 12 Noroeste 22 Noroeste 0 1013.4 0.7 51
2019-07-21 05:00:00 24.5 5 Noroeste 28 Noroeste 0 1013.1 0.5 53
2019-07-21 04:00:00 25.5 9 Noroeste 26 Noroeste 0 1012.7 0.4 53
2019-07-21 03:00:00 27.3 13 Noroeste 31 Noroeste 0 1012.7 0.9 49
2019-07-21 02:00:00 28.6 10 Noroeste 24 Oeste 0 1012.6 1.3 47
2019-07-21 01:00:00 29 14 Noroeste 21 Noroeste 0 1012.3 1.9 44
2019-07-21 00:00:00 29.4 13 Oeste 19 Oeste 0 1011.8 1.7 37
2019-07-20 23:00:00 29.6 13 Oeste 28 Oeste 0 1011.3 1.4 34
2019-07-20 22:00:00 29.8 18 Oeste 27 Oeste 0 1010.4 0.5 40
2019-07-20 21:00:00 30.3 19 Sudoeste 31 Oeste 0 1010.1 -0.1 40
2019-07-20 20:00:00 30.2 21 Sudoeste 35 Oeste 0 1009.9 -0.5 40
2019-07-20 19:00:00 30.8 24 Sudoeste 37 Sudoeste 0 1009.9 -0.7 39
2019-07-20 18:00:00 31.3 23 Sudoeste 35 Sudoeste 0 1010.2 -0.7 42
2019-07-20 17:00:00 32.4 24 Sudoeste 33 Sudoeste 0 1010.4 -0.9 41
2019-07-20 16:00:00 36.4 20 Sudoeste 29 Sudoeste 0 1010.6 -1 32
2019-07-20 15:00:00 35.8 13 Oeste 26 Sudoeste 0 1010.9 -0.7 27
2019-07-20 14:00:00 34.2 13 Sudoeste 23 Oeste 0 1011.3 -0.2 32
2019-07-20 13:00:00 32.4 12 Oeste 22 Noroeste 0 1011.6 0 35
2019-07-20 12:00:00 29.4 11 Noroeste 22 Noroeste 0 1011.6 0.4 42
2019-07-20 11:00:00 26.6 12 Noroeste 24 Noroeste 0 1011.5 0.7 48
2019-07-20 10:00:00 24.3 5 Noroeste 19 Oeste 0 1011.6 1.3 53
2019-07-20 09:00:00 22.3 6 Noroeste 18 Oeste 0 1011.2 1 57
2019-07-20 08:00:00 21.3 7 Noroeste 23 Noroeste 0 1010.8 0.6 60
2019-07-20 07:00:00 21.7 13 Noroeste 27 Noroeste 0 1010.3 0.1 59
2019-07-20 06:00:00 22.4 14 Noroeste 23 Noroeste 0 1010.2 0.2 59
2019-07-20 05:00:00 23.3 14 Noroeste 26 Oeste 0 1010.2 0.4 60
2019-07-20 04:00:00 25.2 17 Oeste 27 Oeste 0 1010.2 0.9 57
2019-07-20 03:00:00 25.5 13 Sudoeste 20 Sudoeste 0 1010 1.1 60
2019-07-20 02:00:00 25.3 10 Sudoeste 17 Sur 0 1009.8 1.5 63
2019-07-20 01:00:00 25.1 10 Sudoeste 19 Sur 0 1009.3 1.5 64
2019-07-20 00:00:00 25.6 10 Sudoeste 19 Sur 0 1008.9 1.3 60
2019-07-19 23:00:00 25.5 14 Sur 18 Sur 0 1008.3 0.9 59
2019-07-19 22:00:00 27 11 Sur 17 Sur 0 1007.8 0.4 49
2019-07-19 21:00:00 29.9 11 Sudoeste 24 Sudoeste 0 1007.6 -0.1 42
2019-07-19 20:00:00 31.7 17 Sudoeste 32 Sudoeste 0 1007.4 -0.5 37
2019-07-19 19:00:00 33.1 21 Sudoeste 32 Sudoeste 0 1007.4 -0.8 35
2019-07-19 18:00:00 33.5 18 Sudoeste 30 Sudoeste 0 1007.7 -1.1 35
2019-07-19 17:00:00 33.4 22 Sudoeste 33 Sudoeste 0 1007.9 -1.4 37
2019-07-19 16:00:00 34.8 21 Sudoeste 30 Sudoeste 0 1008.2 -1.5 32
2019-07-19 15:00:00 35.7 18 Sudoeste 27 Sudoeste 0 1008.8 -1.4 31
2019-07-19 14:00:00 35.4 10 Oeste 21 Sudoeste 0 1009.3 -1.3 32
2019-07-19 13:00:00 33.5 8 Sudeste 12 Sudeste 0 1009.7 -1 38
2019-07-19 12:00:00 31 3 Noroeste 13 Nordeste 0 1010.2 -0.5 42
2019-07-19 11:00:00 27.8 5 Nordeste 12 Nordeste 0 1010.6 0.3 52
2019-07-19 10:00:00 25 5 Nordeste 10 Nordeste 0 1010.7 0.6 65
2019-07-19 09:00:00 22.1 4 Norte 12 Nordeste 0 1010.7 0.9 72
2019-07-19 08:00:00 19.5 7 Nordeste 12 Norte 0 1010.3 0.4 76
2019-07-19 07:00:00 19.8 0 Calma 6 Nordeste 0 1010.1 0.1 83
2019-07-19 06:00:00 20.1 4 Nordeste 9 Nordeste 0 1009.8 -0.4 80
2019-07-19 05:00:00 20.9 4 Nordeste 8 Nordeste 0 1009.9 -0.6 82
2019-07-19 04:00:00 21.1 0 Calma 4 Noroeste 0 1010 -0.4 82
2019-07-19 03:00:00 21.4 3 Sur 8 Sur 0 1010.2 -0.2 81
2019-07-19 02:00:00 22 4 Sudeste 6 Sudeste 0 1010.5 0.6 78
2019-07-19 01:00:00 22.6 0 Calma 7 Sudeste 0 1010.4 0.7 76
2019-07-19 00:00:00 23.7 5 Este 17 Oeste 0 1010.4 0.8 70